Ashland, Massachusetts
Current Conditions -  °F | °C
As of 11:53 PM on Friday 31 Oct 2014 (Local Time) from KOWD Reporting Station
Overcast Overcast  
Wind Chill: 46°   Ceiling: 9000
Heat Index: 49°   Visibility: 10mi
Dew Point: 35°   Wind: 7mph
Humidity: 59%   Direction: 30°NNE
Pressure: 29.94"   Gusts: 17mph
Location:  42.26°N, 71.46°W
Report Text: KOWD 010353Z AUTO 03006G15KT 10SM OVC090 09/02 A2994 RMK AO2 SLP139 T00940017
Loading
Personal Weather Stations






























Interactive Weather Map
Tropical Storm Tracking
New forecast layout! Learn more

10-Day Weather Forecast

Advertisements
Track Severe Weather on mobile